CheckWX is a tool to help pilots better visualize weather data.  It is not intended as a substitute for an official pre-flight weather briefing.

14:21:52 UTC

KGRI METAR
Central Nebraska Regional Airport
Grand Island, Nebraska, USA
Current

40 mins ago

KGRI 161342Z COR VRB05KT 7SM TSRA FEW041 SCT070 OVC100 22/19 A2996 RMK AO2 TS W MOV E RAB17 TSB09E24B36 P0002 T02170189
Observed
Jul-16 @ 13:42 UTC
Wind
  • Variable at 5 KTS
Visibility
7 SM
Flight Rules
VFR
Conditions
Thunderstorm, Rain
Cloud Levels
  • Few at 4,100' AGL
  • Scattered at 7,000' AGL
  • Overcast at 10,000' AGL
Temperature
22°C / 72°F
Dewpoint
19°C / 66°F
Humidity
83%
Altimeter
29.96" Hg
Pressure
1014.52 hPa
Current Rain
0.02"
Previous

52 mins ago

KGRI 161330Z COR VRB05KT 10SM VCTS -RA OVC100 22/19 A2996 RMK AO2 LTG DSNT W TS VC W MOV ENE RAB17 TSB09E24 P0000 T02170194
Observed
Jul-16 @ 13:30 UTC
Wind
  • Variable at 5 KTS
Visibility
10 SM
Flight Rules
VFR
Conditions
Area Thunderstorm, Light Rain
Cloud Levels
  • Overcast at 10,000' AGL
Temperature
22°C / 72°F
Dewpoint
19°C / 66°F
Humidity
83%
Altimeter
29.96" Hg
Pressure
1014.52 hPa
Current Rain
0.01"
Previous

1 hour ago

KGRI 161315Z COR 33003KT 10SM TS OVC100 22/19 A2995 RMK AO2 LTG DSNT W TS WNW MOV E TSB09 T02220189
Observed
Jul-16 @ 13:15 UTC
Wind
  • 330° at 3 KTS
Visibility
10 SM
Flight Rules
VFR
Conditions
Thunderstorm
Cloud Levels
  • Overcast at 10,000' AGL
Temperature
22°C / 72°F
Dewpoint
19°C / 66°F
Humidity
83%
Altimeter
29.95" Hg
Pressure
1014.22 hPa